Time;durP1;ratioP1;P1;durP2;ratioP2;P2;SDS_P1;SDS_P2;PMS_P1;PMS_P2;Temp;Humidity;BMP_temperature;BMP_pressure;BME280_temperature;BME280_humidity;BME280_pressure;Samples;Min_cycle;Max_cycle;Signal;HPM_P1;HPM_P2
2023/08/06 00:01:06;;;;;;;5.53;3.90;;;;;;;;;;5045258;28;20044;-75
2023/08/06 00:03:32;;;;;;;7.63;3.47;;;;;;;;;;5043988;28;20030;-76
2023/08/06 00:05:58;;;;;;;7.75;3.83;;;;;;;;;;5044621;28;20045;-76
2023/08/06 00:08:24;;;;;;;4.40;3.90;;;;;;;;;;5047651;28;20037;-76
2023/08/06 00:10:50;;;;;;;5.18;3.47;;;;;;;;;;5064538;28;20033;-76
2023/08/06 00:13:16;;;;;;;4.72;3.17;;;;;;;;;;5048886;28;20551;-76
2023/08/06 00:15:42;;;;;;;5.85;3.58;;;;;;;;;;5046159;28;20050;-75
2023/08/06 00:18:08;;;;;;;7.13;3.38;;;;;;;;;;5050536;28;20022;-76
2023/08/06 00:20:34;;;;;;;5.35;2.70;;;;;;;;;;5065829;28;20036;-76
2023/08/06 00:23:00;;;;;;;11.25;3.10;;;;;;;;;;5044919;28;20033;-76
2023/08/06 00:25:26;;;;;;;7.13;2.72;;;;;;;;;;5053157;28;20018;-76
2023/08/06 00:27:52;;;;;;;17.08;3.47;;;;;;;;;;5049396;28;20025;-75
2023/08/06 00:30:18;;;;;;;5.03;2.75;;;;;;;;;;5049588;28;20024;-76
2023/08/06 00:32:44;;;;;;;8.68;2.90;;;;;;;;;;5052193;28;20022;-76
2023/08/06 00:35:13;;;;;;;4.50;2.80;;;;;;;;;;5054074;28;20026;-76
2023/08/06 00:37:39;;;;;;;4.18;2.80;;;;;;;;;;5047539;28;20037;-75
2023/08/06 00:40:06;;;;;;;8.85;3.20;;;;;;;;;;5051388;28;20021;-75
2023/08/06 00:42:32;;;;;;;5.63;3.22;;;;;;;;;;5049797;28;20034;-76
2023/08/06 00:44:58;;;;;;;4.82;3.00;;;;;;;;;;5047355;28;20033;-75
2023/08/06 00:47:24;;;;;;;4.75;2.92;;;;;;;;;;5050170;28;20044;-76
2023/08/06 00:49:53;;;;;;;5.53;3.20;;;;;;;;;;5048853;28;20030;-76
2023/08/06 00:52:19;;;;;;;7.38;2.97;;;;;;;;;;5046807;28;20026;-75
2023/08/06 00:54:45;;;;;;;6.15;3.20;;;;;;;;;;5046575;28;20025;-76
2023/08/06 00:57:12;;;;;;;4.60;3.10;;;;;;;;;;5051178;28;20084;-76
2023/08/06 00:59:38;;;;;;;7.63;3.28;;;;;;;;;;5067058;28;20033;-76
2023/08/06 01:02:04;;;;;;;3.50;3.17;;;;;;;;;;5056154;28;20019;-76
2023/08/06 01:04:30;;;;;;;10.15;3.53;;;;;;;;;;5050454;28;20032;-76
2023/08/06 01:06:56;;;;;;;7.72;3.75;;;;;;;;;;5054425;28;20053;-76
2023/08/06 01:09:36;;;;;;;4.97;3.22;;;;;;;;;;5049860;28;20040;-76
2023/08/06 01:12:07;;;;;;;3.75;3.00;;;;;;;;;;5051214;28;20042;-76
2023/08/06 01:14:52;;;;;;;6.25;3.10;;;;;;;;;;5049964;28;20041;-76
2023/08/06 01:17:18;;;;;;;7.18;3.15;;;;;;;;;;5050317;28;20040;-76
2023/08/06 01:19:50;;;;;;;7.80;3.22;;;;;;;;;;5066676;28;20074;-76
2023/08/06 01:22:16;;;;;;;4.45;3.10;;;;;;;;;;5050933;28;20124;-76
2023/08/06 01:24:46;;;;;;;7.85;3.13;;;;;;;;;;5068665;28;20071;-76
2023/08/06 01:27:14;;;;;;;5.32;3.22;;;;;;;;;;5049461;28;20030;-76
2023/08/06 01:29:49;;;;;;;5.25;3.50;;;;;;;;;;5050528;28;20031;-76
2023/08/06 01:32:16;;;;;;;8.80;3.50;;;;;;;;;;5050114;28;20092;-76
2023/08/06 01:34:44;;;;;;;7.93;3.28;;;;;;;;;;5068104;28;20045;-76
2023/08/06 01:37:13;;;;;;;7.43;3.40;;;;;;;;;;5068401;28;20049;-76
2023/08/06 01:39:43;;;;;;;5.25;3.30;;;;;;;;;;5048231;28;20022;-76
2023/08/06 01:42:09;;;;;;;3.97;2.70;;;;;;;;;;5045139;28;20261;-75
2023/08/06 01:44:35;;;;;;;12.98;3.45;;;;;;;;;;5048739;28;20036;-76
2023/08/06 01:47:01;;;;;;;4.75;3.05;;;;;;;;;;5051370;28;20041;-76
2023/08/06 01:49:27;;;;;;;5.68;2.78;;;;;;;;;;5050222;28;20021;-76
2023/08/06 01:51:53;;;;;;;4.68;3.47;;;;;;;;;;5048506;28;20060;-76
2023/08/06 01:54:19;;;;;;;6.68;2.92;;;;;;;;;;5050963;28;20025;-76
2023/08/06 01:56:45;;;;;;;6.93;3.25;;;;;;;;;;5067647;28;20043;-76
2023/08/06 01:59:11;;;;;;;5.80;3.30;;;;;;;;;;5049517;28;20663;-77
2023/08/06 02:01:37;;;;;;;6.72;3.08;;;;;;;;;;5049022;28;20021;-76
2023/08/06 02:04:03;;;;;;;3.80;2.53;;;;;;;;;;5046464;28;20025;-75
2023/08/06 02:06:32;;;;;;;5.25;3.25;;;;;;;;;;5047797;28;20025;-76
2023/08/06 02:08:58;;;;;;;6.93;2.95;;;;;;;;;;5045497;28;20951;-76
2023/08/06 02:11:24;;;;;;;11.93;3.60;;;;;;;;;;5047525;28;20049;-76
2023/08/06 02:13:50;;;;;;;6.65;3.22;;;;;;;;;;5049687;28;20021;-76
2023/08/06 02:16:16;;;;;;;3.92;3.00;;;;;;;;;;5051056;28;20035;-75
2023/08/06 02:18:42;;;;;;;6.38;3.45;;;;;;;;;;5067199;28;20029;-75
2023/08/06 02:21:08;;;;;;;5.15;3.20;;;;;;;;;;5050832;28;20037;-76
2023/08/06 02:23:34;;;;;;;5.10;3.70;;;;;;;;;;5047400;28;20045;-76
2023/08/06 02:26:04;;;;;;;6.70;2.95;;;;;;;;;;5048990;28;20017;-76
2023/08/06 02:28:31;;;;;;;5.75;3.17;;;;;;;;;;5064744;28;20026;-75
2023/08/06 02:30:57;;;;;;;5.93;3.47;;;;;;;;;;5046665;28;20018;-76
2023/08/06 02:33:23;;;;;;;5.07;3.55;;;;;;;;;;5048250;28;20098;-76
2023/08/06 02:35:49;;;;;;;11.75;3.35;;;;;;;;;;5047594;28;20029;-75
2023/08/06 02:38:15;;;;;;;4.53;3.65;;;;;;;;;;5050249;28;20089;-76
2023/08/06 02:40:45;;;;;;;8.60;3.45;;;;;;;;;;5065367;28;20032;-76
2023/08/06 02:43:11;;;;;;;5.35;3.03;;;;;;;;;;5212261;22;20040;-76
2023/08/06 02:45:37;;;;;;;6.13;3.42;;;;;;;;;;5045348;28;20378;-76
2023/08/06 02:48:03;;;;;;;5.28;3.45;;;;;;;;;;5050132;28;20184;-75
2023/08/06 02:50:29;;;;;;;8.88;3.70;;;;;;;;;;5046623;28;20009;-76
2023/08/06 02:52:55;;;;;;;3.28;2.80;;;;;;;;;;5045701;28;20037;-76
2023/08/06 02:55:21;;;;;;;4.05;2.88;;;;;;;;;;5065408;28;20042;-76
2023/08/06 02:57:47;;;;;;;5.35;2.47;;;;;;;;;;5049092;28;20059;-76
2023/08/06 03:00:13;;;;;;;4.97;2.70;;;;;;;;;;5047455;28;20082;-76
2023/08/06 03:02:39;;;;;;;5.57;2.75;;;;;;;;;;5066141;28;20029;-76
2023/08/06 03:05:06;;;;;;;7.30;2.70;;;;;;;;;;5046641;28;20037;-76
2023/08/06 03:07:33;;;;;;;5.47;2.92;;;;;;;;;;5045357;28;20025;-76
2023/08/06 03:10:01;;;;;;;7.60;2.63;;;;;;;;;;5064248;28;20013;-75
2023/08/06 03:12:28;;;;;;;6.78;3.05;;;;;;;;;;5066321;28;20033;-76
2023/08/06 03:14:54;;;;;;;8.02;3.40;;;;;;;;;;5048720;28;20034;-76
2023/08/06 03:17:20;;;;;;;4.88;2.80;;;;;;;;;;5043959;28;20040;-76
2023/08/06 03:19:49;;;;;;;3.72;3.05;;;;;;;;;;5065139;28;20034;-76
2023/08/06 03:22:15;;;;;;;5.53;3.03;;;;;;;;;;5047852;28;20022;-76
2023/08/06 03:24:41;;;;;;;6.72;4.43;;;;;;;;;;5048006;28;20022;-75
2023/08/06 03:27:07;;;;;;;11.90;3.28;;;;;;;;;;5048263;28;20024;-75
2023/08/06 03:29:33;;;;;;;4.78;2.85;;;;;;;;;;5065940;28;20037;-77
2023/08/06 03:31:59;;;;;;;4.35;3.00;;;;;;;;;;5045641;28;20021;-75
2023/08/06 03:34:25;;;;;;;4.68;3.22;;;;;;;;;;5045523;28;20025;-76
2023/08/06 03:36:51;;;;;;;5.88;3.30;;;;;;;;;;5048911;28;20044;-76
2023/08/06 03:39:17;;;;;;;7.18;3.65;;;;;;;;;;5045418;28;21215;-76
2023/08/06 03:41:43;;;;;;;7.63;3.67;;;;;;;;;;5048918;28;20036;-76
2023/08/06 03:44:09;;;;;;;6.40;3.45;;;;;;;;;;5044640;28;20026;-77
2023/08/06 03:46:35;;;;;;;7.30;3.28;;;;;;;;;;5065432;28;20037;-77
2023/08/06 03:49:01;;;;;;;6.30;3.35;;;;;;;;;;5044187;28;20014;-76
2023/08/06 03:51:27;;;;;;;7.18;3.78;;;;;;;;;;5065215;28;20021;-75
2023/08/06 03:53:53;;;;;;;6.00;3.55;;;;;;;;;;5047656;28;20091;-77
2023/08/06 03:56:19;;;;;;;6.05;3.85;;;;;;;;;;5064832;28;20046;-76
2023/08/06 03:58:45;;;;;;;6.25;3.50;;;;;;;;;;5049296;28;20014;-76
2023/08/06 04:01:11;;;;;;;10.95;4.25;;;;;;;;;;5047705;28;20025;-76
2023/08/06 04:03:38;;;;;;;6.05;3.75;;;;;;;;;;5093083;22;20069;-76
2023/08/06 04:06:04;;;;;;;6.78;3.70;;;;;;;;;;5028388;28;20022;-76
2023/08/06 04:08:30;;;;;;;7.55;4.00;;;;;;;;;;5028132;28;20025;-76
2023/08/06 04:10:56;;;;;;;8.73;4.03;;;;;;;;;;5026632;28;20022;-76
2023/08/06 04:13:22;;;;;;;10.43;4.65;;;;;;;;;;5029387;28;20041;-76
2023/08/06 04:15:48;;;;;;;9.75;5.13;;;;;;;;;;5032645;28;20986;-76
2023/08/06 04:18:14;;;;;;;12.52;5.07;;;;;;;;;;5034291;28;20090;-76
2023/08/06 04:20:49;;;;;;;10.27;5.03;;;;;;;;;;5034712;28;20018;-76
2023/08/06 04:23:15;;;;;;;15.23;6.30;;;;;;;;;;5034134;28;20014;-76
2023/08/06 04:25:44;;;;;;;14.05;5.90;;;;;;;;;;5034021;28;20082;-76
2023/08/06 04:28:10;;;;;;;12.27;6.93;;;;;;;;;;5031678;28;20026;-75
2023/08/06 04:30:37;;;;;;;14.57;5.97;;;;;;;;;;5031601;28;20033;-76
2023/08/06 04:33:07;;;;;;;14.27;6.05;;;;;;;;;;5033683;28;20010;-76
2023/08/06 04:35:33;;;;;;;10.00;5.60;;;;;;;;;;5031399;28;20222;-76
2023/08/06 04:37:59;;;;;;;11.32;5.55;;;;;;;;;;5051849;28;20022;-76
2023/08/06 04:40:25;;;;;;;15.95;6.18;;;;;;;;;;5031294;28;20044;-76
2023/08/06 04:42:51;;;;;;;11.18;5.75;;;;;;;;;;5031938;28;20858;-76
2023/08/06 04:45:17;;;;;;;12.35;5.90;;;;;;;;;;5033828;28;20104;-76
2023/08/06 04:47:46;;;;;;;15.00;6.65;;;;;;;;;;5031054;28;20014;-76
2023/08/06 04:50:12;;;;;;;16.58;5.75;;;;;;;;;;5032831;28;20026;-76
2023/08/06 04:52:38;;;;;;;13.57;5.57;;;;;;;;;;5033586;28;20037;-76
2023/08/06 04:55:06;;;;;;;17.13;6.45;;;;;;;;;;5031624;28;20010;-76
2023/08/06 04:57:32;;;;;;;14.10;5.72;;;;;;;;;;5032075;28;20038;-76
2023/08/06 04:59:58;;;;;;;10.38;5.13;;;;;;;;;;5052686;28;20022;-75
2023/08/06 05:02:24;;;;;;;16.52;6.07;;;;;;;;;;5032320;28;20076;-75
2023/08/06 05:04:50;;;;;;;12.73;6.00;;;;;;;;;;5033034;28;20034;-76
2023/08/06 05:07:16;;;;;;;10.55;5.05;;;;;;;;;;5032231;28;20025;-76
2023/08/06 05:09:42;;;;;;;13.73;5.35;;;;;;;;;;5032544;28;20040;-77
2023/08/06 05:12:08;;;;;;;13.98;6.10;;;;;;;;;;5031660;28;20056;-76
2023/08/06 05:14:34;;;;;;;12.80;6.22;;;;;;;;;;5032914;28;20022;-76
2023/08/06 05:17:02;;;;;;;14.50;5.47;;;;;;;;;;5032324;28;20033;-76
2023/08/06 05:19:28;;;;;;;12.85;6.53;;;;;;;;;;5051134;28;20018;-76
2023/08/06 05:21:54;;;;;;;11.63;6.00;;;;;;;;;;5031865;28;20018;-76
2023/08/06 05:24:20;;;;;;;13.20;5.93;;;;;;;;;;5051553;28;20038;-77
2023/08/06 05:26:47;;;;;;;9.57;6.05;;;;;;;;;;5031886;28;20021;-76
2023/08/06 05:29:17;;;;;;;12.75;6.00;;;;;;;;;;5031123;28;20053;-76
2023/08/06 05:31:43;;;;;;;10.82;5.90;;;;;;;;;;5032804;28;20041;-76
2023/08/06 05:34:09;;;;;;;11.95;6.18;;;;;;;;;;5050965;28;20049;-76
2023/08/06 05:36:35;;;;;;;12.90;6.03;;;;;;;;;;5052627;28;20026;-75
2023/08/06 05:39:01;;;;;;;12.75;6.32;;;;;;;;;;5029972;28;20033;-77
2023/08/06 05:41:27;;;;;;;13.30;5.88;;;;;;;;;;5050449;28;20033;-77
2023/08/06 05:43:53;;;;;;;8.75;5.65;;;;;;;;;;5031791;28;20046;-76
2023/08/06 05:46:19;;;;;;;9.10;5.38;;;;;;;;;;5031634;28;20056;-76
2023/08/06 05:48:45;;;;;;;10.60;5.80;;;;;;;;;;5032522;28;20026;-76
2023/08/06 05:51:13;;;;;;;9.35;5.07;;;;;;;;;;5055275;22;20088;-76
2023/08/06 05:53:39;;;;;;;9.60;5.20;;;;;;;;;;5066675;28;20014;-76
2023/08/06 05:56:08;;;;;;;10.90;5.30;;;;;;;;;;5088177;28;20037;-76
2023/08/06 05:58:34;;;;;;;7.55;4.75;;;;;;;;;;5087570;28;20037;-76
2023/08/06 06:01:00;;;;;;;12.48;5.32;;;;;;;;;;5069020;28;20017;-76
2023/08/06 06:03:28;;;;;;;6.97;4.25;;;;;;;;;;5089246;28;20022;-76
2023/08/06 06:05:54;;;;;;;9.32;4.70;;;;;;;;;;5070194;28;20033;-76
2023/08/06 06:08:20;;;;;;;7.90;5.00;;;;;;;;;;5065802;28;20028;-77
2023/08/06 06:10:46;;;;;;;11.10;4.55;;;;;;;;;;5067413;28;20226;-76
2023/08/06 06:13:12;;;;;;;6.85;4.00;;;;;;;;;;5066148;28;20033;-76
2023/08/06 06:15:38;;;;;;;10.57;4.20;;;;;;;;;;5071682;28;20067;-76
2023/08/06 06:18:04;;;;;;;6.55;4.32;;;;;;;;;;5070334;28;20093;-77
2023/08/06 06:20:32;;;;;;;7.40;4.72;;;;;;;;;;5075805;28;20033;-76
2023/08/06 06:22:59;;;;;;;7.28;4.40;;;;;;;;;;5088060;28;20028;-77
2023/08/06 06:25:24;;;;;;;7.80;4.60;;;;;;;;;;5065851;28;20052;-76
2023/08/06 06:27:51;;;;;;;9.02;4.97;;;;;;;;;;5086867;28;20035;-76
2023/08/06 06:30:17;;;;;;;8.35;4.55;;;;;;;;;;5087590;28;20021;-76
2023/08/06 06:32:43;;;;;;;13.75;4.32;;;;;;;;;;5070410;28;20045;-76
2023/08/06 06:35:09;;;;;;;8.15;4.10;;;;;;;;;;5069059;28;20033;-77
2023/08/06 06:37:35;;;;;;;8.27;4.32;;;;;;;;;;5086558;28;20063;-77
2023/08/06 06:40:01;;;;;;;13.32;6.82;;;;;;;;;;5078119;22;20037;-76
2023/08/06 06:42:27;;;;;;;8.98;4.93;;;;;;;;;;5029611;28;20022;-76
2023/08/06 06:44:53;;;;;;;9.18;5.15;;;;;;;;;;5036895;28;20026;-77
2023/08/06 06:47:19;;;;;;;11.63;5.63;;;;;;;;;;5028048;28;20119;-76
2023/08/06 06:49:45;;;;;;;8.63;5.38;;;;;;;;;;5029893;28;20551;-76
2023/08/06 06:52:11;;;;;;;8.82;5.18;;;;;;;;;;5025529;28;20023;-77
2023/08/06 06:54:37;;;;;;;5.57;3.30;;;;;;;;;;5026669;28;20061;-76
2023/08/06 06:57:04;;;;;;;5.88;2.22;;;;;;;;;;5025626;28;20033;-77
2023/08/06 06:59:30;;;;;;;6.25;1.88;;;;;;;;;;5028625;28;20029;-76
2023/08/06 07:01:56;;;;;;;6.18;2.10;;;;;;;;;;5027633;28;20018;-76
2023/08/06 07:04:22;;;;;;;3.85;1.77;;;;;;;;;;5030089;28;20030;-76
2023/08/06 07:06:48;;;;;;;2.50;1.63;;;;;;;;;;5028116;28;20024;-76
2023/08/06 07:09:14;;;;;;;3.55;1.67;;;;;;;;;;5026645;28;20014;-76
2023/08/06 07:11:43;;;;;;;5.10;1.50;;;;;;;;;;5026327;28;20136;-75
2023/08/06 07:14:09;;;;;;;2.78;2.15;;;;;;;;;;5030266;28;20098;-76
2023/08/06 07:16:35;;;;;;;4.10;1.85;;;;;;;;;;5045124;28;20094;-76
2023/08/06 07:19:01;;;;;;;3.95;1.92;;;;;;;;;;5029073;28;20041;-76
2023/08/06 07:21:27;;;;;;;3.17;1.60;;;;;;;;;;5028822;28;20042;-76
2023/08/06 07:23:54;;;;;;;2.97;1.70;;;;;;;;;;5026032;28;20085;-76
2023/08/06 07:26:20;;;;;;;4.13;1.75;;;;;;;;;;5046268;28;20034;-75
2023/08/06 07:28:46;;;;;;;2.42;1.83;;;;;;;;;;5029816;28;20022;-76
2023/08/06 07:31:12;;;;;;;3.83;1.70;;;;;;;;;;5026112;28;20041;-75
2023/08/06 07:33:41;;;;;;;3.03;1.70;;;;;;;;;;5029044;28;20058;-75
2023/08/06 07:36:08;;;;;;;6.82;1.88;;;;;;;;;;5034309;28;20045;-76
2023/08/06 07:38:34;;;;;;;7.13;2.10;;;;;;;;;;5029042;28;20022;-75
2023/08/06 07:41:02;;;;;;;3.03;1.48;;;;;;;;;;5024894;28;20068;-75
2023/08/06 07:43:28;;;;;;;4.43;1.65;;;;;;;;;;5023813;28;20045;-76
2023/08/06 07:45:54;;;;;;;2.28;1.50;;;;;;;;;;5045562;28;20022;-75
2023/08/06 07:48:20;;;;;;;1.70;1.40;;;;;;;;;;5079219;23;20075;-76
2023/08/06 07:50:50;;;;;;;1.60;1.35;;;;;;;;;;5065229;28;20022;-76
2023/08/06 07:53:16;;;;;;;2.55;1.67;;;;;;;;;;5065349;28;20032;-76
2023/08/06 07:55:42;;;;;;;3.63;1.70;;;;;;;;;;5064065;28;20044;-76
2023/08/06 07:58:08;;;;;;;2.63;1.65;;;;;;;;;;5066242;28;20049;-74
2023/08/06 08:00:34;;;;;;;1.77;1.52;;;;;;;;;;5065138;28;20020;-76
2023/08/06 08:03:00;;;;;;;1.75;1.33;;;;;;;;;;5063903;28;20017;-76
2023/08/06 08:05:26;;;;;;;3.03;1.60;;;;;;;;;;5065882;28;20025;-76
2023/08/06 08:07:52;;;;;;;2.53;2.03;;;;;;;;;;5068409;28;20035;-75
2023/08/06 08:10:18;;;;;;;1.52;1.20;;;;;;;;;;5065671;28;20013;-76
2023/08/06 08:12:47;;;;;;;0.73;0.68;;;;;;;;;;5066813;28;20114;-76
2023/08/06 08:15:13;;;;;;;2.70;0.70;;;;;;;;;;5066986;28;20190;-76
2023/08/06 08:17:39;;;;;;;3.70;0.90;;;;;;;;;;5064079;28;20048;-76
2023/08/06 08:20:05;;;;;;;1.13;0.90;;;;;;;;;;5064089;28;20021;-75
2023/08/06 08:22:31;;;;;;;1.23;0.75;;;;;;;;;;5069020;28;20131;-75
2023/08/06 08:24:57;;;;;;;1.13;1.02;;;;;;;;;;5065200;28;20033;-75
2023/08/06 08:27:24;;;;;;;1.70;1.60;;;;;;;;;;5080166;28;20029;-75
2023/08/06 08:29:50;;;;;;;2.10;1.50;;;;;;;;;;5069707;28;20044;-75
2023/08/06 08:32:16;;;;;;;1.13;0.90;;;;;;;;;;5065556;28;20022;-76
2023/08/06 08:34:42;;;;;;;2.10;1.30;;;;;;;;;;5066271;28;20057;-75
2023/08/06 08:37:08;;;;;;;1.65;1.00;;;;;;;;;;5064242;28;20043;-76
2023/08/06 08:39:34;;;;;;;1.10;0.90;;;;;;;;;;5064926;28;20035;-75
2023/08/06 08:42:01;;;;;;;2.75;1.30;;;;;;;;;;5065437;28;20029;-75
2023/08/06 08:44:29;;;;;;;1.20;1.02;;;;;;;;;;5066465;28;20024;-76
2023/08/06 08:46:55;;;;;;;1.55;1.08;;;;;;;;;;5064270;28;20014;-76
2023/08/06 08:49:22;;;;;;;1.50;1.30;;;;;;;;;;5066753;28;20287;-76
2023/08/06 08:51:49;;;;;;;2.05;0.90;;;;;;;;;;5065124;28;20036;-76
2023/08/06 08:54:16;;;;;;;1.73;1.00;;;;;;;;;;5066742;28;20029;-76
2023/08/06 08:56:42;;;;;;;1.75;1.10;;;;;;;;;;5064701;28;20127;-75
2023/08/06 08:59:08;;;;;;;3.63;1.58;;;;;;;;;;5068619;28;20040;-75
2023/08/06 09:01:35;;;;;;;1.70;1.55;;;;;;;;;;5070005;28;20029;-75
2023/08/06 09:04:01;;;;;;;2.60;2.10;;;;;;;;;;5068087;28;20025;-75
2023/08/06 09:06:28;;;;;;;3.67;2.58;;;;;;;;;;5068241;28;20054;-76
2023/08/06 09:08:57;;;;;;;2.83;2.10;;;;;;;;;;5067677;28;20108;-76
2023/08/06 09:11:24;;;;;;;2.35;1.98;;;;;;;;;;5071428;28;20123;-74
2023/08/06 09:13:50;;;;;;;12.25;3.22;;;;;;;;;;5083881;28;20021;-75
2023/08/06 09:16:16;;;;;;;3.72;2.95;;;;;;;;;;5069725;28;20056;-75
2023/08/06 09:18:42;;;;;;;18.77;5.10;;;;;;;;;;5068832;28;20017;-75
2023/08/06 09:21:14;;;;;;;12.77;4.22;;;;;;;;;;5066358;28;20033;-75
2023/08/06 09:23:40;;;;;;;5.07;3.65;;;;;;;;;;5069274;28;20109;-74
2023/08/06 09:26:06;;;;;;;4.60;3.92;;;;;;;;;;5066065;28;20025;-75
2023/08/06 09:28:42;;;;;;;7.30;5.93;;;;;;;;;;5079684;28;20020;-77
2023/08/06 09:31:10;;;;;;;7.60;6.68;;;;;;;;;;5081267;28;20043;-76
2023/08/06 09:33:37;;;;;;;12.02;8.27;;;;;;;;;;5067494;28;20017;-76
2023/08/06 09:36:15;;;;;;;10.75;8.27;;;;;;;;;;5071681;28;20029;-75
2023/08/06 09:38:41;;;;;;;12.15;7.85;;;;;;;;;;5068030;28;20029;-75
2023/08/06 09:41:08;;;;;;;13.50;9.38;;;;;;;;;;5068705;28;20032;-74
2023/08/06 09:43:41;;;;;;;10.38;7.93;;;;;;;;;;5069048;28;20029;-75
2023/08/06 09:46:16;;;;;;;11.10;7.63;;;;;;;;;;5066935;28;20238;-77
2023/08/06 09:48:44;;;;;;;10.00;7.43;;;;;;;;;;5067763;28;20032;-74
2023/08/06 09:51:11;;;;;;;8.38;6.10;;;;;;;;;;5065591;28;20048;-75
2023/08/06 09:53:38;;;;;;;6.40;4.35;;;;;;;;;;5066576;28;20013;-75
2023/08/06 09:56:04;;;;;;;7.65;3.08;;;;;;;;;;5068208;28;20051;-76
2023/08/06 09:58:31;;;;;;;4.63;2.33;;;;;;;;;;5063482;28;20041;-74
2023/08/06 10:00:58;;;;;;;15.18;3.83;;;;;;;;;;5064830;28;20025;-75
2023/08/06 10:03:24;;;;;;;29.80;4.85;;;;;;;;;;5064932;28;20094;-75
2023/08/06 10:05:50;;;;;;;54.33;5.18;;;;;;;;;;5081274;28;20021;-77
2023/08/06 10:08:33;;;;;;;9.10;2.20;;;;;;;;;;5067172;28;20029;-75
2023/08/06 10:11:01;;;;;;;12.52;1.92;;;;;;;;;;5066892;28;20013;-75
2023/08/06 10:13:27;;;;;;;4.45;1.70;;;;;;;;;;5065227;28;20029;-76
2023/08/06 10:15:53;;;;;;;3.33;1.02;;;;;;;;;;5070332;28;20087;-75
2023/08/06 10:18:22;;;;;;;3.75;1.05;;;;;;;;;;5065847;28;20034;-75
2023/08/06 10:20:48;;;;;;;10.20;1.67;;;;;;;;;;5067231;28;20016;-75
2023/08/06 10:23:14;;;;;;;3.60;1.35;;;;;;;;;;5066052;28;20029;-73
2023/08/06 10:25:42;;;;;;;2.53;1.30;;;;;;;;;;5067500;28;20017;-75
2023/08/06 10:28:13;;;;;;;4.10;1.40;;;;;;;;;;5083327;28;20038;-74
2023/08/06 10:30:44;;;;;;;2.15;0.82;;;;;;;;;;5069465;28;20068;-74
2023/08/06 10:33:10;;;;;;;4.05;1.00;;;;;;;;;;5068216;28;20021;-76
2023/08/06 10:35:53;;;;;;;1.55;0.85;;;;;;;;;;5069276;28;20032;-75
2023/08/06 10:38:29;;;;;;;1.42;0.93;;;;;;;;;;5069233;28;20025;-75
2023/08/06 10:40:55;;;;;;;2.05;1.10;;;;;;;;;;5083931;28;20021;-76
2023/08/06 10:43:28;;;;;;;6.05;1.70;;;;;;;;;;5066138;28;20053;-75
2023/08/06 10:45:54;;;;;;;6.47;2.35;;;;;;;;;;5065897;28;20013;-78
2023/08/06 10:48:41;;;;;;;5.43;2.50;;;;;;;;;;5074370;28;20122;-75
2023/08/06 10:51:11;;;;;;;5.75;2.75;;;;;;;;;;5063705;28;20029;-75
2023/08/06 10:53:37;;;;;;;6.97;2.67;;;;;;;;;;5068916;28;20095;-75
2023/08/06 10:56:13;;;;;;;6.10;2.63;;;;;;;;;;5061427;28;20079;-76
2023/08/06 10:58:39;;;;;;;7.13;2.70;;;;;;;;;;5061653;28;20144;-76
2023/08/06 11:01:05;;;;;;;6.65;4.05;;;;;;;;;;5061323;28;20067;-77
2023/08/06 11:03:32;;;;;;;10.63;3.90;;;;;;;;;;5052591;28;20025;-78
2023/08/06 11:05:58;;;;;;;8.10;4.57;;;;;;;;;;5052169;28;20032;-77
2023/08/06 11:08:28;;;;;;;12.57;4.00;;;;;;;;;;5050717;28;20029;-77
2023/08/06 11:10:54;;;;;;;11.93;4.17;;;;;;;;;;5046301;28;20033;-78
2023/08/06 11:13:25;;;;;;;12.63;4.18;;;;;;;;;;5047057;28;20163;-78
2023/08/06 11:15:53;;;;;;;12.20;5.22;;;;;;;;;;5047335;28;20393;-78
2023/08/06 11:18:22;;;;;;;11.45;4.80;;;;;;;;;;5052363;28;20055;-75
2023/08/06 11:20:48;;;;;;;10.50;4.67;;;;;;;;;;5050036;28;20024;-78
2023/08/06 11:23:14;;;;;;;11.77;5.10;;;;;;;;;;5046580;28;20063;-77
2023/08/06 11:25:49;;;;;;;11.45;4.53;;;;;;;;;;5051715;28;20096;-78
2023/08/06 11:28:15;;;;;;;10.52;4.22;;;;;;;;;;5043272;28;20030;-78
2023/08/06 11:30:41;;;;;;;6.85;4.60;;;;;;;;;;5041947;28;20044;-76
2023/08/06 11:33:09;;;;;;;8.18;4.57;;;;;;;;;;5051409;28;20131;-78
2023/08/06 11:35:36;;;;;;;12.55;6.00;;;;;;;;;;5049395;28;20036;-77
2023/08/06 11:38:02;;;;;;;10.90;4.78;;;;;;;;;;5069723;28;20041;-79
2023/08/06 11:40:28;;;;;;;9.00;4.70;;;;;;;;;;5047284;28;20037;-76
2023/08/06 11:42:57;;;;;;;13.43;4.82;;;;;;;;;;5044723;28;20044;-78
2023/08/06 11:45:24;;;;;;;9.82;3.50;;;;;;;;;;5054829;28;20086;-77
2023/08/06 11:47:52;;;;;;;9.27;3.50;;;;;;;;;;5054234;28;20504;-77
2023/08/06 11:50:27;;;;;;;7.70;3.65;;;;;;;;;;5053988;28;20032;-76
2023/08/06 11:52:56;;;;;;;13.80;3.25;;;;;;;;;;5055330;28;20120;-75
2023/08/06 11:55:26;;;;;;;11.65;3.08;;;;;;;;;;5048827;28;20100;-78
2023/08/06 11:57:54;;;;;;;10.75;3.50;;;;;;;;;;5051299;28;20517;-78
2023/08/06 12:00:22;;;;;;;9.48;3.35;;;;;;;;;;5058581;28;20041;-77
2023/08/06 12:02:49;;;;;;;10.07;3.35;;;;;;;;;;5049999;28;20033;-77
2023/08/06 12:05:23;;;;;;;9.80;3.88;;;;;;;;;;5062847;28;20473;-77
2023/08/06 12:07:52;;;;;;;10.18;3.28;;;;;;;;;;5070176;28;20212;-75
2023/08/06 12:10:22;;;;;;;8.88;3.00;;;;;;;;;;5055752;28;20053;-76
2023/08/06 12:12:51;;;;;;;7.55;2.65;;;;;;;;;;5057986;28;20063;-76
2023/08/06 12:15:17;;;;;;;7.70;2.40;;;;;;;;;;5056242;28;20052;-77
2023/08/06 12:17:47;;;;;;;5.00;2.78;;;;;;;;;;5057289;28;20092;-77
2023/08/06 12:20:14;;;;;;;9.00;2.60;;;;;;;;;;5056182;28;20025;-75
2023/08/06 12:22:40;;;;;;;6.88;2.17;;;;;;;;;;5055667;28;20051;-77
2023/08/06 12:25:11;;;;;;;5.93;1.80;;;;;;;;;;5055622;28;20118;-76
2023/08/06 12:27:38;;;;;;;5.82;2.17;;;;;;;;;;5059458;28;20052;-74
2023/08/06 12:30:06;;;;;;;5.82;1.50;;;;;;;;;;5060011;28;20041;-76
2023/08/06 12:32:33;;;;;;;6.35;1.55;;;;;;;;;;5051707;28;20033;-78
2023/08/06 12:35:02;;;;;;;5.63;2.17;;;;;;;;;;5054173;28;20038;-74
2023/08/06 12:37:30;;;;;;;6.13;2.25;;;;;;;;;;5061275;28;20078;-76
2023/08/06 12:39:56;;;;;;;11.73;2.60;;;;;;;;;;5057696;28;20021;-75
2023/08/06 12:42:25;;;;;;;10.35;2.72;;;;;;;;;;5060955;28;20040;-76
2023/08/06 12:44:51;;;;;;;7.20;2.72;;;;;;;;;;5054505;28;20032;-76
2023/08/06 12:47:18;;;;;;;7.28;2.83;;;;;;;;;;5061739;28;20091;-76
2023/08/06 12:49:44;;;;;;;6.15;3.40;;;;;;;;;;5057695;28;20041;-75
2023/08/06 12:52:14;;;;;;;11.00;3.30;;;;;;;;;;5058583;28;20518;-79
2023/08/06 12:54:43;;;;;;;5.07;2.70;;;;;;;;;;5056623;28;20030;-77
2023/08/06 12:57:09;;;;;;;12.40;3.42;;;;;;;;;;5053313;28;20041;-78
2023/08/06 12:59:36;;;;;;;8.18;2.35;;;;;;;;;;5069096;28;20057;-77
2023/08/06 13:02:05;;;;;;;6.50;2.08;;;;;;;;;;5062447;28;20071;-73
2023/08/06 13:04:33;;;;;;;7.40;2.50;;;;;;;;;;5071270;28;20026;-75
2023/08/06 13:07:01;;;;;;;7.18;1.95;;;;;;;;;;5061458;28;20053;-76
2023/08/06 13:09:27;;;;;;;9.43;3.00;;;;;;;;;;5051044;28;20037;-78
2023/08/06 13:11:53;;;;;;;6.00;2.25;;;;;;;;;;5046202;28;20037;-78
2023/08/06 13:14:19;;;;;;;6.53;2.88;;;;;;;;;;5042118;28;20130;-78
2023/08/06 13:16:48;;;;;;;6.10;2.55;;;;;;;;;;5048978;28;20377;-78
2023/08/06 13:19:14;;;;;;;6.30;2.58;;;;;;;;;;5065813;28;20035;-79
2023/08/06 13:21:49;;;;;;;7.10;2.38;;;;;;;;;;5070283;28;20033;-76
2023/08/06 13:24:16;;;;;;;7.50;2.40;;;;;;;;;;5062170;28;20045;-75
2023/08/06 13:26:42;;;;;;;5.85;2.10;;;;;;;;;;5066359;28;20035;-74
2023/08/06 13:29:08;;;;;;;13.77;3.30;;;;;;;;;;5078367;28;20064;-77
2023/08/06 13:31:34;;;;;;;14.70;3.83;;;;;;;;;;5061859;28;20021;-75
2023/08/06 13:34:08;;;;;;;20.67;4.72;;;;;;;;;;5066815;28;20205;-75
2023/08/06 13:36:36;;;;;;;18.23;4.78;;;;;;;;;;5066384;28;20049;-74
2023/08/06 13:39:03;;;;;;;26.15;5.88;;;;;;;;;;5062329;28;21206;-76
2023/08/06 13:41:29;;;;;;;9.77;4.93;;;;;;;;;;5080247;28;20096;-73
2023/08/06 13:43:55;;;;;;;14.13;5.15;;;;;;;;;;5061978;28;20032;-75
2023/08/06 13:46:21;;;;;;;9.98;5.50;;;;;;;;;;5083051;28;20021;-75
2023/08/06 13:48:50;;;;;;;10.63;5.70;;;;;;;;;;5068616;28;20017;-75
2023/08/06 13:51:19;;;;;;;9.50;5.75;;;;;;;;;;5071458;28;20021;-75
2023/08/06 13:53:45;;;;;;;9.40;4.97;;;;;;;;;;5066529;28;20017;-74
2023/08/06 13:56:11;;;;;;;8.93;5.97;;;;;;;;;;5066276;28;20107;-75
2023/08/06 13:58:37;;;;;;;11.30;6.38;;;;;;;;;;5066372;28;20024;-74
2023/08/06 14:01:06;;;;;;;13.25;7.10;;;;;;;;;;5062644;28;20038;-74
2023/08/06 14:03:32;;;;;;;12.38;8.90;;;;;;;;;;5069064;28;20028;-74
2023/08/06 14:05:58;;;;;;;15.80;7.88;;;;;;;;;;5062899;28;20033;-76
2023/08/06 14:08:25;;;;;;;17.38;6.68;;;;;;;;;;5059847;28;20032;-74
2023/08/06 14:10:51;;;;;;;11.35;5.05;;;;;;;;;;5061118;28;20037;-75
2023/08/06 14:13:18;;;;;;;10.27;3.47;;;;;;;;;;5053194;28;20040;-76
2023/08/06 14:15:46;;;;;;;8.90;2.45;;;;;;;;;;5056545;28;20041;-75
2023/08/06 14:18:12;;;;;;;4.68;2.38;;;;;;;;;;5058576;28;20044;-74
2023/08/06 14:20:41;;;;;;;8.95;2.80;;;;;;;;;;5052250;28;20036;-77
2023/08/06 14:23:07;;;;;;;5.57;2.10;;;;;;;;;;5047328;28;20467;-78
2023/08/06 14:25:36;;;;;;;12.25;2.83;;;;;;;;;;5059529;28;20029;-75
2023/08/06 14:28:02;;;;;;;8.13;1.77;;;;;;;;;;5066984;28;20033;-79
2023/08/06 14:30:30;;;;;;;5.80;1.85;;;;;;;;;;5072586;28;20052;-77
2023/08/06 14:33:00;;;;;;;2.85;1.33;;;;;;;;;;5050399;28;20041;-75
2023/08/06 14:35:26;;;;;;;9.00;1.60;;;;;;;;;;5051663;28;20040;-77
2023/08/06 14:37:54;;;;;;;8.05;1.60;;;;;;;;;;5053838;28;20013;-76